Time;durP1;ratioP1;P1;durP2;ratioP2;P2;SDS_P1;SDS_P2;PMS_P1;PMS_P2;Temp;Humidity;BMP_temperature;BMP_pressure;BME280_temperature;BME280_humidity;BME280_pressure;Samples;Min_cycle;Max_cycle;Signal;HPM_P1;HPM_P2
2022/08/25 00:01:16;;;;;;;7.78;5.40;;;;;;;26.28;56.53;101744.84;5059113;27;97196;-71
2022/08/25 00:03:44;;;;;;;13.48;5.97;;;;;;;26.42;55.93;101741.81;5061036;27;98747;-70
2022/08/25 00:06:13;;;;;;;9.85;5.45;;;;;;;26.18;56.43;101744.75;5058812;27;98394;-69
2022/08/25 00:08:40;;;;;;;12.00;5.25;;;;;;;26.22;56.50;101745.34;5057236;27;98797;-71
2022/08/25 00:11:10;;;;;;;10.45;5.30;;;;;;;26.32;55.97;101751.72;5056855;27;97534;-71
2022/08/25 00:13:37;;;;;;;10.13;5.18;;;;;;;26.40;55.86;101750.06;5056945;27;97667;-71
2022/08/25 00:16:03;;;;;;;10.07;5.55;;;;;;;26.41;55.78;101743.66;5059393;27;98987;-72
2022/08/25 00:18:30;;;;;;;11.68;5.82;;;;;;;26.36;55.99;101747.75;5059836;27;98810;-72
2022/08/25 00:20:56;;;;;;;14.05;6.30;;;;;;;26.32;56.03;101746.31;5059590;27;98507;-72
2022/08/25 00:23:24;;;;;;;10.00;5.70;;;;;;;26.27;56.32;101743.97;5059669;27;98597;-71
2022/08/25 00:25:51;;;;;;;11.65;5.72;;;;;;;26.16;56.57;101735.88;5057869;27;98829;-71
2022/08/25 00:28:17;;;;;;;16.83;6.10;;;;;;;26.30;56.10;101734.75;5057488;27;101626;-71
2022/08/25 00:30:44;;;;;;;12.27;6.18;;;;;;;26.14;56.63;101732.44;5059559;27;96839;-71
2022/08/25 00:33:11;;;;;;;11.15;6.15;;;;;;;26.12;56.58;101735.28;5057769;27;96941;-71
2022/08/25 00:35:39;;;;;;;9.57;5.93;;;;;;;26.16;56.60;101731.34;5060721;27;98908;-71
2022/08/25 00:38:05;;;;;;;15.45;5.57;;;;;;;26.12;56.56;101731.75;5056903;27;99243;-71
2022/08/25 00:40:33;;;;;;;10.60;6.25;;;;;;;25.99;57.11;101728.34;5057288;27;98798;-71
2022/08/25 00:42:59;;;;;;;10.70;5.95;;;;;;;26.13;56.65;101725.31;5060008;27;97590;-71
2022/08/25 00:45:26;;;;;;;13.38;6.53;;;;;;;26.07;56.59;101712.28;5059362;27;99158;-71
2022/08/25 00:47:54;;;;;;;12.02;5.80;;;;;;;26.02;56.96;101711.81;5058561;27;99047;-71
2022/08/25 00:50:22;;;;;;;16.05;6.07;;;;;;;25.79;57.63;101721.91;5059032;27;98027;-71
2022/08/25 00:52:52;;;;;;;11.70;6.13;;;;;;;25.79;57.76;101722.78;5056433;27;98948;-71
2022/08/25 00:55:23;;;;;;;10.27;5.90;;;;;;;25.79;57.64;101722.78;5057218;27;99321;-71
2022/08/25 00:57:55;;;;;;;12.52;6.22;;;;;;;25.75;57.65;101718.59;5059110;27;98937;-71
2022/08/25 01:00:25;;;;;;;12.20;7.28;;;;;;;25.93;57.05;101715.34;5061374;27;96952;-71
2022/08/25 01:02:51;;;;;;;12.68;6.38;;;;;;;25.99;56.95;101736.47;5058569;27;98516;-71
2022/08/25 01:05:19;;;;;;;9.93;5.57;;;;;;;26.05;56.66;101727.84;5056217;27;100672;-71
2022/08/25 01:07:46;;;;;;;16.20;6.28;;;;;;;26.02;57.08;101728.06;5057664;27;99152;-71
2022/08/25 01:10:16;;;;;;;14.52;6.50;;;;;;;26.02;56.77;101728.94;5058095;27;99297;-71
2022/08/25 01:12:42;;;;;;;12.40;6.15;;;;;;;25.99;57.07;101733.78;5061765;27;98642;-71
2022/08/25 01:15:12;;;;;;;17.85;6.85;;;;;;;25.93;57.08;101731.59;5055635;27;99703;-71
2022/08/25 01:17:46;;;;;;;15.10;6.25;;;;;;;25.90;57.31;101724.56;5060433;27;99130;-71
2022/08/25 01:20:18;;;;;;;10.98;6.22;;;;;;;25.95;57.11;101722.31;5055926;27;98557;-72
2022/08/25 01:22:47;;;;;;;8.68;6.13;;;;;;;25.80;57.43;101727.19;5058943;27;97403;-71
2022/08/25 01:25:26;;;;;;;13.90;6.35;;;;;;;25.64;58.11;101728.59;5054673;27;99043;-71
2022/08/25 01:27:54;;;;;;;13.68;5.93;;;;;;;25.79;57.44;101730.91;5058374;27;99465;-72
2022/08/25 01:30:22;;;;;;;11.68;6.53;;;;;;;25.91;56.97;101736.25;5057153;27;97894;-72
2022/08/25 01:32:48;;;;;;;14.05;6.80;;;;;;;25.75;57.99;101724.00;5058892;27;98781;-71
2022/08/25 01:35:15;;;;;;;10.15;6.70;;;;;;;25.73;57.91;101725.97;5056950;27;98984;-71
2022/08/25 01:37:41;;;;;;;15.15;6.57;;;;;;;25.83;57.33;101728.78;5057317;27;100806;-72
2022/08/25 01:40:11;;;;;;;12.18;6.53;;;;;;;25.77;57.70;101729.28;5057173;27;99304;-72
2022/08/25 01:43:01;;;;;;;10.68;6.47;;;;;;;25.69;57.98;101727.22;5059154;27;97696;-71
2022/08/25 01:45:33;;;;;;;11.93;6.75;;;;;;;25.74;57.65;101729.53;5055089;27;100566;-71
2022/08/25 01:48:03;;;;;;;12.82;6.38;;;;;;;25.65;57.92;101727.63;5057040;27;98902;-72
2022/08/25 01:50:30;;;;;;;10.52;6.45;;;;;;;25.79;57.31;101725.47;5057039;27;96984;-72
2022/08/25 01:53:02;;;;;;;12.05;6.50;;;;;;;25.70;57.86;101720.81;5058082;27;98846;-70
2022/08/25 01:55:50;;;;;;;19.88;7.32;;;;;;;25.70;57.90;101719.97;5060564;27;100844;-71
2022/08/25 01:58:16;;;;;;;11.75;6.15;;;;;;;25.75;57.49;101720.44;5056313;27;100047;-71
2022/08/25 02:00:45;;;;;;;13.95;6.43;;;;;;;25.74;57.30;101721.41;5056154;27;98547;-70
2022/08/25 02:03:11;;;;;;;16.48;6.82;;;;;;;25.82;57.26;101720.78;5057737;27;97127;-70
2022/08/25 02:05:39;;;;;;;12.77;7.53;;;;;;;25.72;57.36;101715.28;5058139;27;99053;-70
2022/08/25 02:08:06;;;;;;;19.55;7.47;;;;;;;25.65;57.72;101714.94;5052761;27;98938;-71
2022/08/25 02:10:34;;;;;;;11.45;6.80;;;;;;;25.58;58.07;101713.75;5057366;27;96813;-71
2022/08/25 02:13:01;;;;;;;9.13;6.18;;;;;;;25.59;57.68;101711.91;5057870;27;97784;-71
2022/08/25 02:15:27;;;;;;;12.38;6.45;;;;;;;25.61;57.86;101709.91;5056883;27;100368;-71
2022/08/25 02:17:53;;;;;;;12.10;6.68;;;;;;;25.57;57.63;101712.00;5055445;27;98912;-71
2022/08/25 02:20:20;;;;;;;13.55;7.07;;;;;;;25.62;57.89;101715.19;5057712;27;96946;-71
2022/08/25 02:22:48;;;;;;;12.65;6.85;;;;;;;25.48;57.90;101710.03;5058405;27;96971;-71
2022/08/25 02:25:15;;;;;;;12.93;7.15;;;;;;;25.36;58.56;101703.78;5057344;27;98696;-71
2022/08/25 02:27:44;;;;;;;13.07;6.72;;;;;;;25.55;57.84;101696.84;5056364;27;99208;-71
2022/08/25 02:30:12;;;;;;;20.83;7.13;;;;;;;25.46;58.36;101709.31;5055835;27;98499;-71
2022/08/25 02:32:39;;;;;;;11.85;6.70;;;;;;;25.53;58.07;101705.13;5057515;27;99171;-71
2022/08/25 02:35:07;;;;;;;13.75;6.80;;;;;;;25.49;58.15;101703.63;5056571;27;99096;-71
2022/08/25 02:37:34;;;;;;;13.48;6.90;;;;;;;25.51;57.78;101698.97;5056477;27;99504;-71
2022/08/25 02:40:01;;;;;;;13.52;6.65;;;;;;;25.49;58.09;101700.06;5054953;27;98438;-71
2022/08/25 02:42:29;;;;;;;14.77;7.90;;;;;;;25.52;57.78;101703.41;5055189;27;97415;-71
2022/08/25 02:44:56;;;;;;;13.43;6.70;;;;;;;25.45;57.99;101694.06;5055873;27;101934;-71
2022/08/25 02:47:23;;;;;;;13.35;6.90;;;;;;;25.39;58.25;101694.56;5055828;27;98953;-71
2022/08/25 02:49:50;;;;;;;12.20;6.85;;;;;;;25.44;58.05;101689.63;5057161;27;97138;-71
2022/08/25 02:52:17;;;;;;;13.07;7.22;;;;;;;25.37;58.41;101685.72;5057455;27;97101;-70
2022/08/25 02:54:45;;;;;;;15.30;7.40;;;;;;;25.41;58.05;101687.16;5057244;27;98973;-71
2022/08/25 02:57:11;;;;;;;17.30;7.57;;;;;;;25.46;57.81;101690.38;5056236;27;99254;-71
2022/08/25 02:59:38;;;;;;;14.48;7.38;;;;;;;25.36;58.21;101689.41;5053679;27;99127;-72
2022/08/25 03:02:09;;;;;;;14.23;6.90;;;;;;;25.31;58.37;101694.34;5056147;27;96870;-71
2022/08/25 03:04:35;;;;;;;15.32;6.43;;;;;;;25.44;57.99;101695.03;5055287;27;97794;-71
2022/08/25 03:07:02;;;;;;;13.10;7.00;;;;;;;25.27;58.44;101684.78;5057210;27;98699;-71
2022/08/25 03:09:30;;;;;;;16.75;7.28;;;;;;;25.17;58.81;101683.78;5056031;27;98900;-71
2022/08/25 03:11:56;;;;;;;10.48;6.47;;;;;;;25.26;58.48;101680.34;5055391;27;97132;-71
2022/08/25 03:14:23;;;;;;;14.50;6.78;;;;;;;25.25;58.46;101678.63;5052949;27;99151;-71
2022/08/25 03:16:49;;;;;;;12.32;6.72;;;;;;;25.25;58.39;101684.03;5060478;27;99356;-71
2022/08/25 03:19:19;;;;;;;12.60;7.53;;;;;;;25.15;59.04;101683.06;5063443;27;97782;-71
2022/08/25 03:21:46;;;;;;;14.23;7.32;;;;;;;25.08;58.83;101677.28;5060114;27;97313;-71
2022/08/25 03:24:14;;;;;;;12.77;7.20;;;;;;;25.23;58.41;101675.19;5059849;27;99524;-71
2022/08/25 03:26:55;;;;;;;16.17;6.82;;;;;;;25.26;58.11;101666.81;5060295;27;97755;-70
2022/08/25 03:29:22;;;;;;;14.07;7.47;;;;;;;25.26;58.34;101674.94;5060086;27;96852;-72
2022/08/25 03:31:51;;;;;;;14.23;7.45;;;;;;;25.17;58.36;101667.56;5059141;27;99024;-70
2022/08/25 03:34:19;;;;;;;12.50;7.32;;;;;;;25.11;58.64;101662.66;5060305;27;98953;-71
2022/08/25 03:36:50;;;;;;;12.88;7.32;;;;;;;25.12;58.52;101661.69;5056261;27;98867;-70
2022/08/25 03:39:18;;;;;;;14.05;7.93;;;;;;;25.24;58.29;101657.97;5059928;27;97199;-70
2022/08/25 03:41:45;;;;;;;14.93;7.35;;;;;;;25.24;58.55;101663.38;5061473;27;97618;-70
2022/08/25 03:44:12;;;;;;;16.83;7.90;;;;;;;25.13;58.45;101658.00;5059526;27;98984;-70
2022/08/25 03:46:43;;;;;;;15.38;8.02;;;;;;;25.19;58.12;101663.75;5059129;27;100171;-71
2022/08/25 03:49:12;;;;;;;15.35;7.75;;;;;;;25.04;58.94;101664.16;5059649;27;96968;-70
2022/08/25 03:51:44;;;;;;;11.23;7.75;;;;;;;25.05;58.82;101664.03;5060968;27;99689;-70
2022/08/25 03:54:11;;;;;;;14.70;8.82;;;;;;;25.19;58.18;101661.06;5059064;27;98944;-70
2022/08/25 03:56:38;;;;;;;16.60;8.52;;;;;;;25.09;58.26;101665.50;5057034;27;99211;-70
2022/08/25 03:59:04;;;;;;;12.75;8.30;;;;;;;25.08;58.66;101671.00;5059293;27;97753;-70
2022/08/25 04:01:35;;;;;;;13.50;8.40;;;;;;;24.98;58.92;101660.97;5062789;27;97353;-70
2022/08/25 04:04:01;;;;;;;20.15;9.98;;;;;;;24.71;59.76;101660.47;5058528;27;103015;-70
2022/08/25 04:06:28;;;;;;;14.45;9.05;;;;;;;24.99;58.61;101668.09;5057892;27;102210;-71
2022/08/25 04:08:57;;;;;;;16.25;9.70;;;;;;;24.96;58.94;101670.19;5060314;27;97245;-70
2022/08/25 04:11:25;;;;;;;20.95;10.63;;;;;;;24.85;59.16;101662.06;5059413;27;98584;-71
2022/08/25 04:13:54;;;;;;;16.88;10.07;;;;;;;24.92;59.08;101677.69;5058234;27;98699;-71
2022/08/25 04:16:24;;;;;;;22.45;9.63;;;;;;;24.83;59.14;101672.13;5059283;27;98837;-71
2022/08/25 04:18:52;;;;;;;14.93;10.00;;;;;;;24.92;59.18;101687.66;5060879;27;97261;-71
2022/08/25 04:21:21;;;;;;;18.30;10.50;;;;;;;24.93;58.90;101684.81;5058906;27;98657;-71
2022/08/25 04:23:49;;;;;;;17.05;10.27;;;;;;;24.91;58.72;101685.91;5057658;27;99019;-71
2022/08/25 04:26:19;;;;;;;23.85;11.98;;;;;;;24.97;59.05;101678.16;5058004;27;98715;-71
2022/08/25 04:28:47;;;;;;;27.20;13.40;;;;;;;24.87;59.38;101681.72;5058358;27;97676;-71
2022/08/25 04:31:17;;;;;;;18.05;12.75;;;;;;;24.96;58.90;101684.56;5059733;27;99736;-71
2022/08/25 04:33:47;;;;;;;20.70;14.23;;;;;;;24.88;59.11;101684.28;5057833;27;100554;-70
2022/08/25 04:36:17;;;;;;;23.25;14.25;;;;;;;24.93;59.11;101695.63;5059529;27;101381;-69
2022/08/25 04:38:44;;;;;;;22.60;14.48;;;;;;;24.95;59.08;101692.78;5055004;27;98181;-70
2022/08/25 04:41:15;;;;;;;22.67;13.88;;;;;;;25.01;59.06;101693.16;5059339;27;96932;-70
2022/08/25 04:43:45;;;;;;;23.70;14.73;;;;;;;25.02;58.91;101689.47;5059589;27;101265;-70
2022/08/25 04:46:17;;;;;;;26.40;15.05;;;;;;;25.06;58.92;101695.50;5058521;27;99203;-71
2022/08/25 04:48:44;;;;;;;25.95;13.50;;;;;;;25.15;58.49;101688.47;5059130;27;98525;-70
2022/08/25 04:51:14;;;;;;;28.15;14.98;;;;;;;25.11;58.50;101687.88;5056993;27;97796;-71
2022/08/25 04:53:42;;;;;;;29.75;14.57;;;;;;;25.18;58.32;101689.09;5057675;27;100776;-71
2022/08/25 04:56:14;;;;;;;29.65;16.48;;;;;;;25.14;58.55;101686.78;5059164;27;99958;-71
2022/08/25 04:58:41;;;;;;;27.75;16.15;;;;;;;25.13;58.84;101685.91;5063361;27;97776;-71
2022/08/25 05:01:15;;;;;;;27.15;16.17;;;;;;;25.05;59.14;101687.50;5056829;27;96891;-70
2022/08/25 05:03:43;;;;;;;22.30;14.93;;;;;;;25.22;58.58;101689.69;5055821;27;98581;-70
2022/08/25 05:06:09;;;;;;;30.10;15.65;;;;;;;25.22;58.63;101685.13;5058023;27;100069;-72
2022/08/25 05:08:39;;;;;;;25.60;14.57;;;;;;;25.14;58.81;101687.59;5062203;27;98983;-71
2022/08/25 05:11:06;;;;;;;28.00;16.08;;;;;;;25.33;58.09;101695.09;5068342;27;96777;-72
2022/08/25 05:13:34;;;;;;;25.13;15.30;;;;;;;25.09;58.75;101683.56;5066749;27;98952;-72
2022/08/25 05:16:01;;;;;;;23.77;15.38;;;;;;;25.33;58.09;101678.84;5060454;27;98935;-71
2022/08/25 05:18:39;;;;;;;22.48;14.23;;;;;;;25.33;58.43;101681.56;5060321;27;96839;-71
2022/08/25 05:21:09;;;;;;;25.98;15.93;;;;;;;25.44;58.03;101694.19;5067019;27;96785;-71
2022/08/25 05:23:38;;;;;;;28.25;15.25;;;;;;;25.35;58.12;101701.22;5063131;27;97802;-75
2022/08/25 05:26:08;;;;;;;24.83;14.95;;;;;;;25.32;58.57;101687.94;5064601;27;101321;-75
2022/08/25 05:28:34;;;;;;;23.95;14.25;;;;;;;25.47;57.95;101686.66;5058929;27;97467;-76
2022/08/25 05:31:04;;;;;;;25.98;15.18;;;;;;;25.44;58.28;101695.03;5061885;27;97455;-76
2022/08/25 05:33:38;;;;;;;23.92;13.68;;;;;;;25.44;58.13;101700.47;5058515;27;97865;-76
2022/08/25 05:36:05;;;;;;;25.55;15.43;;;;;;;25.39;58.10;101700.00;5057624;27;99007;-77
2022/08/25 05:38:32;;;;;;;24.77;14.32;;;;;;;25.49;57.88;101706.34;5056579;27;97025;-77
2022/08/25 05:41:02;;;;;;;26.25;14.15;;;;;;;25.57;57.80;101708.41;5057333;27;98844;-75
2022/08/25 05:43:29;;;;;;;23.55;13.38;;;;;;;25.62;57.99;101712.47;5063094;27;99200;-76
2022/08/25 05:45:57;;;;;;;23.88;13.77;;;;;;;25.73;57.57;101715.13;5062175;27;98884;-76
2022/08/25 05:48:25;;;;;;;19.08;13.52;;;;;;;25.67;57.43;101712.94;5061805;27;98764;-76
2022/08/25 05:50:57;;;;;;;25.05;14.02;;;;;;;25.58;57.97;101718.28;5059675;27;96952;-70
2022/08/25 05:53:27;;;;;;;20.42;13.50;;;;;;;25.74;57.49;101713.28;5056343;27;101701;-71
2022/08/25 05:55:55;;;;;;;20.33;13.18;;;;;;;25.63;57.45;101726.88;5061362;27;99349;-71
2022/08/25 05:58:23;;;;;;;19.05;12.45;;;;;;;25.59;57.70;101726.28;5063723;27;97191;-70
2022/08/25 06:00:51;;;;;;;17.67;12.80;;;;;;;25.61;57.96;101718.88;5060960;27;97183;-70
2022/08/25 06:03:17;;;;;;;18.60;12.65;;;;;;;25.52;57.94;101716.94;5068254;27;98919;-70
2022/08/25 06:05:44;;;;;;;20.25;12.98;;;;;;;25.63;57.83;101716.91;5069624;27;98957;-69
2022/08/25 06:08:14;;;;;;;22.45;13.27;;;;;;;25.67;57.80;101715.66;5071099;27;97148;-70
2022/08/25 06:10:41;;;;;;;17.42;11.93;;;;;;;25.75;57.73;101709.59;5069941;27;96614;-70
2022/08/25 06:13:08;;;;;;;19.25;12.88;;;;;;;25.84;57.54;101711.56;5067912;27;101237;-70
2022/08/25 06:15:39;;;;;;;21.95;13.20;;;;;;;26.01;56.86;101710.09;5067935;27;98733;-71
2022/08/25 06:18:08;;;;;;;19.77;12.70;;;;;;;25.89;57.20;101708.44;5072359;27;96702;-70
2022/08/25 06:20:37;;;;;;;19.95;13.65;;;;;;;25.89;57.39;101711.16;5066766;27;97009;-70
2022/08/25 06:23:03;;;;;;;20.27;12.95;;;;;;;25.92;57.17;101710.91;5066851;27;97924;-69
2022/08/25 06:25:32;;;;;;;23.25;12.90;;;;;;;26.07;56.97;101712.28;5061430;27;97758;-70
2022/08/25 06:27:59;;;;;;;21.83;13.48;;;;;;;26.04;57.25;101709.84;5070628;27;96652;-70
2022/08/25 06:30:25;;;;;;;25.52;14.30;;;;;;;26.10;56.97;101715.59;5068564;27;96778;-71
2022/08/25 06:32:52;;;;;;;21.23;15.07;;;;;;;26.08;57.09;101711.31;5072302;27;102080;-69
2022/08/25 06:35:19;;;;;;;21.85;14.13;;;;;;;26.18;56.95;101712.25;5060609;27;97766;-70
2022/08/25 06:37:47;;;;;;;24.33;14.57;;;;;;;26.27;56.45;101718.72;5067918;27;96802;-70
2022/08/25 06:40:15;;;;;;;21.90;15.55;;;;;;;26.03;57.46;101713.56;5069121;27;96935;-70
2022/08/25 06:42:49;;;;;;;23.33;14.48;;;;;;;26.22;57.07;101719.09;5071491;27;98428;-70
2022/08/25 06:45:15;;;;;;;22.48;14.23;;;;;;;26.25;56.86;101723.44;5065840;27;98755;-70
2022/08/25 06:47:42;;;;;;;25.50;15.65;;;;;;;26.13;57.59;101733.44;5063200;27;96856;-70
2022/08/25 06:50:09;;;;;;;27.50;15.35;;;;;;;26.29;56.98;101730.31;5061887;27;96820;-71
2022/08/25 06:52:35;;;;;;;24.33;14.48;;;;;;;26.27;57.02;101725.00;5073698;27;98910;-70
2022/08/25 06:55:02;;;;;;;25.15;15.20;;;;;;;26.27;57.13;101729.56;5064089;27;99108;-70
2022/08/25 06:57:30;;;;;;;22.65;14.75;;;;;;;26.25;57.40;101727.03;5073575;27;96726;-71
2022/08/25 06:59:57;;;;;;;24.30;14.65;;;;;;;26.40;56.94;101728.38;5076662;27;96844;-70
2022/08/25 07:02:45;;;;;;;33.03;19.85;;;;;;;26.40;56.74;101738.34;5072516;27;99271;-70
2022/08/25 07:05:12;;;;;;;26.63;17.60;;;;;;;26.61;56.26;101725.66;5071251;27;99639;-71
2022/08/25 07:07:38;;;;;;;31.90;16.25;;;;;;;26.42;56.86;101734.53;5069082;27;96839;-70
2022/08/25 07:10:06;;;;;;;25.90;16.35;;;;;;;26.54;56.49;101730.75;5074003;27;96802;-70
2022/08/25 07:12:32;;;;;;;27.15;16.65;;;;;;;26.51;56.57;101722.91;5075094;27;97701;-70
2022/08/25 07:15:00;;;;;;;25.63;16.08;;;;;;;26.51;56.46;101720.19;5069981;27;100909;-70
2022/08/25 07:17:30;;;;;;;27.67;16.00;;;;;;;26.85;55.51;101719.91;5071247;27;96764;-71
2022/08/25 07:19:57;;;;;;;27.77;15.38;;;;;;;26.79;55.89;101721.31;5069636;27;96835;-72
2022/08/25 07:22:23;;;;;;;24.08;16.10;;;;;;;26.87;55.68;101717.94;5075596;27;101114;-70
2022/08/25 07:24:50;;;;;;;25.58;15.52;;;;;;;27.01;55.53;101705.88;5073806;27;99332;-70
2022/08/25 07:27:18;;;;;;;25.73;15.00;;;;;;;27.32;54.70;101710.25;5067511;27;97371;-71
2022/08/25 07:29:45;;;;;;;24.50;15.80;;;;;;;27.57;54.09;101709.75;5070958;27;96985;-70
2022/08/25 07:32:12;;;;;;;28.55;16.65;;;;;;;27.62;54.07;101702.06;5071084;27;99086;-71
2022/08/25 07:37:23;;;;;;;27.55;15.75;;;;;;;27.82;53.20;101699.34;5059988;27;97068;-70
2022/08/25 07:39:49;;;;;;;25.55;15.82;;;;;;;27.92;53.09;101703.78;5071627;27;96879;-70
2022/08/25 07:42:16;;;;;;;29.60;17.00;;;;;;;28.02;52.92;101704.66;5073730;27;99295;-69
2022/08/25 07:44:42;;;;;;;25.90;15.35;;;;;;;27.80;53.17;101690.50;5070022;27;98864;-72
2022/08/25 07:47:14;;;;;;;25.48;15.57;;;;;;;28.09;52.99;101702.22;5074668;27;96707;-71
2022/08/25 07:49:41;;;;;;;27.75;16.45;;;;;;;28.10;52.95;101695.75;5074719;27;96873;-70
2022/08/25 07:52:07;;;;;;;31.17;16.88;;;;;;;28.29;52.38;101701.19;5064851;27;99085;-70
2022/08/25 07:54:35;;;;;;;31.23;16.75;;;;;;;28.45;51.81;101704.16;5072302;27;101221;-70
2022/08/25 07:57:01;;;;;;;30.83;18.00;;;;;;;28.54;51.55;101706.00;5071386;27;96826;-70
2022/08/25 07:59:31;;;;;;;29.67;18.02;;;;;;;28.36;51.53;101693.28;5073439;27;97396;-70
2022/08/25 08:01:59;;;;;;;33.25;16.90;;;;;;;28.26;52.11;101701.50;5063950;27;102028;-69
2022/08/25 08:04:26;;;;;;;33.80;18.00;;;;;;;28.30;52.08;101705.63;5060915;27;98936;-70
2022/08/25 08:06:53;;;;;;;29.45;16.88;;;;;;;28.24;52.39;101697.19;5065060;27;98451;-70
2022/08/25 08:09:19;;;;;;;33.72;17.92;;;;;;;28.30;52.11;101700.19;5074600;27;96815;-71
2022/08/25 08:11:48;;;;;;;32.33;17.33;;;;;;;28.22;52.25;101699.22;5065719;27;99888;-71
2022/08/25 08:14:15;;;;;;;37.22;18.23;;;;;;;28.52;51.98;101693.56;5068215;27;99324;-71
2022/08/25 08:16:42;;;;;;;40.72;19.83;;;;;;;28.62;51.55;101693.53;5068042;27;97258;-71
2022/08/25 08:19:09;;;;;;;31.58;19.25;;;;;;;28.85;50.63;101692.19;5073248;27;96817;-71
2022/08/25 08:21:37;;;;;;;32.60;19.02;;;;;;;28.91;50.52;101687.00;5073489;27;98264;-70
2022/08/25 08:24:04;;;;;;;33.03;18.00;;;;;;;29.38;49.66;101686.91;5072264;27;99038;-70
2022/08/25 08:26:33;;;;;;;31.87;18.07;;;;;;;29.51;49.26;101681.94;5023031;27;1069943;-71
2022/08/25 08:29:03;;;;;;;27.45;17.58;;;;;;;29.42;49.04;101685.56;5070218;27;96802;-71
2022/08/25 08:31:30;;;;;;;30.52;17.98;;;;;;;29.16;50.11;101687.28;5070627;27;99410;-70
2022/08/25 08:33:57;;;;;;;34.08;17.80;;;;;;;29.15;49.86;101682.84;5065732;27;97642;-71
2022/08/25 08:36:24;;;;;;;28.30;17.10;;;;;;;29.23;49.90;101674.78;5066496;27;97168;-71
2022/08/25 08:38:52;;;;;;;30.08;16.95;;;;;;;29.43;49.11;101670.94;5074100;27;97240;-70
2022/08/25 08:44:34;;;;;;;30.67;16.70;;;;;;;29.55;49.08;101663.41;5063658;27;96689;-72
2022/08/25 08:47:07;;;;;;;33.92;17.45;;;;;;;29.63;48.74;101661.63;5071533;27;97399;-71
2022/08/25 08:49:40;;;;;;;28.42;16.42;;;;;;;29.49;48.95;101667.59;5073162;27;96666;-72
2022/08/25 08:52:11;;;;;;;24.50;16.10;;;;;;;29.28;49.19;101667.00;5072434;27;99266;-71
2022/08/25 08:54:42;;;;;;;27.92;16.95;;;;;;;29.35;49.39;101672.72;5065637;27;98805;-70
2022/08/25 08:57:14;;;;;;;28.95;16.40;;;;;;;29.15;49.76;101667.38;5070537;27;96866;-72
2022/08/25 08:59:47;;;;;;;27.38;15.57;;;;;;;29.15;49.94;101671.94;5071291;27;96852;-71
2022/08/25 09:02:19;;;;;;;33.40;15.88;;;;;;;29.21;50.08;101676.81;5065981;27;98872;-70
2022/08/25 09:04:54;;;;;;;26.40;14.35;;;;;;;29.13;50.12;101663.09;5068133;27;99487;-71
2022/08/25 09:07:27;;;;;;;26.20;14.18;;;;;;;29.24;50.12;101665.59;5065937;27;97428;-71
2022/08/25 09:09:56;;;;;;;22.65;13.52;;;;;;;29.44;49.75;101661.78;5069938;27;96833;-70
2022/08/25 09:12:32;;;;;;;26.02;13.55;;;;;;;29.34;49.55;101665.59;5067886;27;101325;-70
2022/08/25 09:15:07;;;;;;;21.30;13.75;;;;;;;29.28;49.89;101664.28;5063270;27;101549;-70
2022/08/25 09:18:01;;;;;;;21.30;12.02;;;;;;;29.65;48.86;101656.88;5056008;27;96737;-70
2022/08/25 09:20:50;;;;;;;22.75;11.68;;;;;;;30.18;48.14;101661.44;5070396;27;97284;-70
2022/08/25 09:23:31;;;;;;;21.00;10.98;;;;;;;30.19;47.74;101654.97;5064452;27;101454;-70
2022/08/25 09:26:09;;;;;;;21.98;12.73;;;;;;;30.46;46.81;101656.63;5065991;27;97566;-70
2022/08/25 09:28:43;;;;;;;21.27;10.50;;;;;;;30.71;46.26;101664.00;5067104;27;96945;-70
2022/08/25 09:31:18;;;;;;;18.13;10.05;;;;;;;30.58;46.54;101652.69;5072513;27;96853;-71
2022/08/25 09:33:45;;;;;;;18.67;10.88;;;;;;;30.37;47.16;101661.22;5065227;27;99269;-70
2022/08/25 09:36:11;;;;;;;16.48;10.25;;;;;;;30.47;46.68;101655.63;5069991;27;101778;-71
2022/08/25 09:38:38;;;;;;;15.43;9.73;;;;;;;30.52;46.50;101657.94;5071998;27;96915;-70
2022/08/25 09:41:07;;;;;;;18.50;9.50;;;;;;;30.57;46.49;101661.00;5071017;27;97376;-70
2022/08/25 09:43:36;;;;;;;22.08;9.50;;;;;;;30.67;46.59;101661.75;5069942;27;98951;-70
2022/08/25 09:46:10;;;;;;;12.73;9.52;;;;;;;30.56;46.27;101645.66;5069589;27;97731;-70
2022/08/25 09:48:46;;;;;;;13.77;8.35;;;;;;;31.08;45.30;101643.69;5070698;27;97147;-71
2022/08/25 09:51:19;;;;;;;14.60;9.80;;;;;;;30.98;45.38;101646.53;5068796;27;97578;-72
2022/08/25 09:53:51;;;;;;;14.27;9.80;;;;;;;30.77;45.59;101644.25;5070335;27;99279;-70
2022/08/25 09:56:22;;;;;;;11.25;8.38;;;;;;;30.35;46.41;101640.56;5056163;27;97447;-70
2022/08/25 09:58:49;;;;;;;13.63;8.50;;;;;;;30.58;46.11;101638.19;5066456;27;96848;-70
2022/08/25 10:01:17;;;;;;;17.70;9.52;;;;;;;30.78;46.00;101635.03;5062780;27;96802;-71
2022/08/25 10:03:55;;;;;;;17.63;8.77;;;;;;;30.89;45.59;101629.28;5066246;27;99005;-70
2022/08/25 10:06:23;;;;;;;14.05;8.40;;;;;;;31.08;45.19;101628.16;5057025;27;99104;-71
2022/08/25 10:08:57;;;;;;;15.10;7.97;;;;;;;31.27;44.33;101629.75;5068741;27;96784;-71
2022/08/25 10:11:36;;;;;;;19.00;8.05;;;;;;;31.57;43.99;101620.06;5070816;27;97005;-71
2022/08/25 10:14:06;;;;;;;14.65;8.32;;;;;;;31.31;44.19;101630.28;5065795;27;98946;-74
2022/08/25 10:16:33;;;;;;;18.50;8.98;;;;;;;31.27;43.89;101621.56;5067428;27;98894;-71
2022/08/25 10:19:04;;;;;;;20.58;9.23;;;;;;;31.16;44.41;101619.16;5070290;27;96726;-71
2022/08/25 10:21:30;;;;;;;13.02;8.10;;;;;;;31.24;44.55;101625.47;5069850;27;96886;-70
2022/08/25 10:23:57;;;;;;;14.85;8.85;;;;;;;31.26;44.09;101609.78;5070473;27;98415;-71
2022/08/25 10:26:36;;;;;;;16.90;7.40;;;;;;;31.30;44.16;101610.31;5067712;27;99452;-70
2022/08/25 10:29:12;;;;;;;18.05;7.25;;;;;;;30.90;44.55;101613.75;5070042;27;96764;-72
2022/08/25 10:31:50;;;;;;;20.23;8.20;;;;;;;31.09;44.52;101620.84;5065242;27;96827;-72
2022/08/25 10:34:25;;;;;;;19.08;7.05;;;;;;;31.19;44.36;101624.25;5068395;27;98841;-71
2022/08/25 10:37:06;;;;;;;11.32;6.28;;;;;;;31.34;43.56;101622.59;5062290;27;99137;-71
2022/08/25 10:39:42;;;;;;;14.68;6.93;;;;;;;31.71;42.97;101616.66;5060852;27;97348;-70
2022/08/25 10:42:19;;;;;;;;;;;;;;;31.60;43.13;101611.56;5072192;27;96995;-71
2022/08/25 10:48:12;;;;;;;16.05;6.15;;;;;;;32.15;41.44;101595.31;5064825;27;97163;-71
2022/08/25 10:50:42;;;;;;;17.02;6.55;;;;;;;31.95;41.99;101591.22;5070342;27;96863;-71
2022/08/25 10:53:20;;;;;;;17.55;7.05;;;;;;;32.39;41.29;101580.69;5070288;27;96743;-72
2022/08/25 10:55:57;;;;;;;10.93;5.70;;;;;;;32.43;41.24;101584.78;5063193;27;99213;-71
2022/08/25 10:58:37;;;;;;;12.48;6.13;;;;;;;32.59;40.78;101587.47;5064945;27;99221;-71
2022/08/25 11:01:14;;;;;;;13.00;6.38;;;;;;;32.88;40.03;101575.06;5070806;27;97131;-71
2022/08/25 11:03:48;;;;;;;13.35;6.28;;;;;;;32.95;40.12;101573.31;5065527;27;97482;-72
2022/08/25 11:06:20;;;;;;;15.00;6.28;;;;;;;32.93;40.22;101575.34;5067978;27;97773;-71
2022/08/25 11:08:51;;;;;;;15.25;6.57;;;;;;;32.55;40.62;101575.19;5071064;27;98940;-71
2022/08/25 11:11:25;;;;;;;17.15;6.40;;;;;;;32.35;40.93;101568.44;5071914;27;97678;-71
2022/08/25 11:13:58;;;;;;;10.57;5.65;;;;;;;32.20;41.28;101564.69;5065621;27;97290;-71
2022/08/25 11:16:33;;;;;;;16.13;6.30;;;;;;;32.04;41.49;101563.69;5067453;27;99091;-71
2022/08/25 11:19:08;;;;;;;13.68;6.13;;;;;;;32.03;41.83;101563.88;5068385;27;99534;-72
2022/08/25 11:21:44;;;;;;;9.77;6.00;;;;;;;32.24;41.34;101566.03;5069759;27;96810;-70
2022/08/25 11:24:26;;;;;;;17.80;6.05;;;;;;;32.43;40.68;101554.69;5065731;27;96926;-72
2022/08/25 11:26:57;;;;;;;12.15;5.85;;;;;;;32.28;41.40;101545.53;5067512;27;99809;-71
2022/08/25 11:29:31;;;;;;;14.55;6.00;;;;;;;32.11;41.52;101543.84;5067239;27;98924;-71
2022/08/25 11:31:59;;;;;;;17.10;6.43;;;;;;;31.95;41.49;101545.59;5069911;27;96698;-71